createdAt,value
2023-05-18T00:01:14.531Z,20.81
2023-05-18T00:03:42.507Z,20.77
2023-05-18T00:06:10.474Z,20.76
2023-05-18T00:08:37.961Z,20.75
2023-05-18T00:11:05.724Z,20.74
2023-05-18T00:13:33.540Z,20.70
2023-05-18T00:16:00.795Z,20.69
2023-05-18T00:18:28.489Z,20.70
2023-05-18T00:21:02.325Z,20.65
2023-05-18T00:23:33.329Z,20.65
2023-05-18T00:26:01.561Z,20.61
2023-05-18T00:28:28.986Z,20.56
2023-05-18T00:30:56.483Z,20.54
2023-05-18T00:33:23.651Z,20.54
2023-05-18T00:35:50.826Z,20.50
2023-05-18T00:38:18.377Z,20.46
2023-05-18T00:40:45.659Z,20.45
2023-05-18T00:43:13.022Z,20.45
2023-05-18T00:45:40.078Z,20.48
2023-05-18T00:48:07.427Z,20.52
2023-05-18T00:50:35.238Z,20.56
2023-05-18T00:53:02.415Z,20.58
2023-05-18T00:55:29.673Z,20.61
2023-05-18T00:57:57.152Z,20.65
2023-05-18T01:00:24.522Z,20.70
2023-05-18T01:02:53.205Z,20.70
2023-05-18T01:05:22.449Z,20.68
2023-05-18T01:07:50.658Z,20.64
2023-05-18T01:10:19.081Z,20.64
2023-05-18T01:13:04.464Z,20.64
2023-05-18T01:15:37.497Z,20.67
2023-05-18T01:18:43.798Z,20.64
2023-05-18T01:21:19.346Z,20.65
2023-05-18T01:24:05.196Z,20.56
2023-05-18T01:26:37.853Z,20.48
2023-05-18T01:29:10.210Z,20.45
2023-05-18T01:31:37.336Z,20.39
2023-05-18T01:34:04.569Z,20.34
2023-05-18T01:36:32.094Z,20.29
2023-05-18T01:39:01.838Z,20.25
2023-05-18T01:41:30.415Z,20.23
2023-05-18T01:44:12.721Z,20.20
2023-05-18T01:46:49.071Z,20.19
2023-05-18T01:49:19.362Z,20.12
2023-05-18T01:51:46.770Z,20.05
2023-05-18T01:54:16.282Z,20.00
2023-05-18T01:56:43.409Z,19.92
2023-05-18T01:59:11.053Z,19.86
2023-05-18T02:01:38.267Z,19.87
2023-05-18T02:04:10.229Z,19.82
2023-05-18T02:06:37.714Z,19.73
2023-05-18T02:09:05.780Z,19.69
2023-05-18T02:11:33.601Z,19.66
2023-05-18T02:14:01.705Z,19.61
2023-05-18T02:16:28.884Z,19.60
2023-05-18T02:18:56.368Z,19.60
2023-05-18T02:21:23.576Z,19.58
2023-05-18T02:23:50.729Z,19.57
2023-05-18T02:26:17.904Z,19.55
2023-05-18T02:28:52.716Z,19.55
2023-05-18T02:31:20.072Z,19.54
2023-05-18T02:33:47.248Z,19.53
2023-05-18T02:36:14.486Z,19.51
2023-05-18T02:38:43.590Z,19.51
2023-05-18T02:41:11.485Z,19.52
2023-05-18T02:43:38.695Z,19.53
2023-05-18T02:46:06.862Z,19.53
2023-05-18T02:48:34.340Z,19.57
2023-05-18T02:51:01.614Z,19.55
2023-05-18T02:53:28.749Z,19.57
2023-05-18T02:56:03.535Z,19.60
2023-05-18T02:58:50.964Z,19.64
2023-05-18T03:01:22.671Z,19.67
2023-05-18T03:03:53.321Z,19.70
2023-05-18T03:06:26.918Z,19.72
2023-05-18T03:08:54.812Z,19.72
2023-05-18T03:11:24.097Z,19.72
2023-05-18T03:13:51.426Z,19.75
2023-05-18T03:16:19.032Z,19.74
2023-05-18T03:18:47.079Z,19.72
2023-05-18T03:21:14.323Z,19.71
2023-05-18T03:23:41.731Z,19.77
2023-05-18T03:26:11.833Z,19.81
2023-05-18T03:28:39.391Z,19.86
2023-05-18T03:31:06.905Z,19.92
2023-05-18T03:33:34.101Z,20.00
2023-05-18T03:36:03.688Z,20.08
2023-05-18T03:38:31.604Z,20.19
2023-05-18T03:41:03.087Z,20.31
2023-05-18T03:43:32.771Z,20.39
2023-05-18T03:46:01.056Z,20.48
2023-05-18T03:48:28.340Z,20.55
2023-05-18T03:50:55.909Z,20.62
2023-05-18T03:53:23.295Z,20.75
2023-05-18T03:55:51.885Z,20.85
2023-05-18T03:58:22.637Z,20.93
2023-05-18T04:00:49.899Z,20.99
2023-05-18T04:03:17.261Z,21.07
2023-05-18T04:05:44.867Z,21.14
2023-05-18T04:08:14.922Z,21.20
2023-05-18T04:10:43.387Z,21.26
2023-05-18T04:13:11.298Z,21.36
2023-05-18T04:15:38.671Z,21.46
2023-05-18T04:18:05.984Z,21.54
2023-05-18T04:20:33.242Z,21.62
2023-05-18T04:23:01.527Z,21.70
2023-05-18T04:25:29.009Z,21.75
2023-05-18T04:27:56.821Z,21.82
2023-05-18T04:30:27.018Z,21.89
2023-05-18T04:32:54.860Z,21.93
2023-05-18T04:35:22.275Z,22.00
2023-05-18T04:37:49.968Z,22.07
2023-05-18T04:40:18.192Z,22.15
2023-05-18T04:42:48.692Z,22.23
2023-05-18T04:45:34.565Z,22.33
2023-05-18T04:48:02.307Z,22.40
2023-05-18T04:50:29.894Z,22.47
2023-05-18T04:52:58.182Z,22.58
2023-05-18T04:55:28.631Z,22.60
2023-05-18T04:58:00.578Z,22.58
2023-05-18T05:00:29.417Z,22.66
2023-05-18T05:02:57.186Z,22.75
2023-05-18T05:05:24.598Z,22.81
2023-05-18T05:07:52.721Z,22.91
2023-05-18T05:10:20.933Z,22.93
2023-05-18T05:12:49.938Z,23.02
2023-05-18T05:15:18.029Z,23.10
2023-05-18T05:17:47.260Z,23.15
2023-05-18T05:20:14.578Z,23.23
2023-05-18T05:22:42.611Z,23.32
2023-05-18T05:25:11.688Z,23.39
2023-05-18T05:27:39.690Z,23.47
2023-05-18T05:30:07.697Z,23.60
2023-05-18T05:32:36.988Z,23.70
2023-05-18T05:35:06.545Z,23.81
2023-05-18T05:37:35.102Z,23.92
2023-05-18T05:40:02.265Z,23.99
2023-05-18T05:42:32.828Z,24.08
2023-05-18T05:45:00.151Z,24.13
2023-05-18T05:47:28.257Z,24.21
2023-05-18T05:49:55.508Z,24.32
2023-05-18T05:52:22.949Z,24.46
2023-05-18T05:54:51.302Z,24.50
2023-05-18T05:57:18.884Z,24.57
2023-05-18T05:59:46.186Z,24.68
2023-05-18T06:02:15.188Z,24.80
2023-05-18T06:04:42.421Z,24.91
2023-05-18T06:07:09.957Z,25.01
2023-05-18T06:09:37.514Z,25.13
2023-05-18T06:12:05.129Z,25.24
2023-05-18T06:14:34.043Z,25.37
2023-05-18T06:17:01.486Z,25.45
2023-05-18T06:19:28.636Z,25.61
2023-05-18T06:21:56.029Z,25.74
2023-05-18T06:24:25.456Z,25.81
2023-05-18T06:27:16.991Z,25.95
2023-05-18T06:29:53.263Z,26.06
2023-05-18T06:32:46.746Z,26.17
2023-05-18T06:35:13.936Z,26.24
2023-05-18T06:37:41.221Z,26.32
2023-05-18T06:40:09.492Z,26.31
2023-05-18T06:42:36.826Z,26.48
2023-05-18T06:45:24.051Z,26.62
2023-05-18T06:47:54.207Z,26.75
2023-05-18T06:50:21.621Z,26.91
2023-05-18T06:52:48.900Z,27.06
2023-05-18T06:55:16.346Z,27.13
2023-05-18T06:57:43.628Z,27.20
2023-05-18T07:00:12.712Z,27.30
2023-05-18T07:02:41.386Z,27.37
2023-05-18T07:05:09.464Z,27.51
2023-05-18T07:07:37.999Z,27.67
2023-05-18T07:10:06.185Z,27.82
2023-05-18T07:12:33.417Z,28.00
2023-05-18T07:15:00.680Z,28.15
2023-05-18T07:17:27.942Z,28.24
2023-05-18T07:19:55.062Z,28.29
2023-05-18T07:22:22.355Z,28.40
2023-05-18T07:24:49.506Z,28.51
2023-05-18T07:27:16.578Z,28.61
2023-05-18T07:29:43.953Z,28.70
2023-05-18T07:32:11.202Z,28.80
2023-05-18T07:34:38.616Z,28.90
2023-05-18T07:37:06.030Z,28.96
2023-05-18T07:39:33.136Z,28.99
2023-05-18T07:42:00.277Z,29.05
2023-05-18T07:44:27.452Z,29.07
2023-05-18T07:46:54.682Z,29.16
2023-05-18T07:49:23.521Z,29.25
2023-05-18T07:51:51.369Z,29.37
2023-05-18T07:54:18.391Z,29.41
2023-05-18T07:56:45.483Z,29.51
2023-05-18T07:59:12.696Z,29.55
2023-05-18T08:01:40.990Z,29.62
2023-05-18T08:04:08.284Z,29.69
2023-05-18T08:06:35.473Z,29.76
2023-05-18T08:09:02.609Z,29.84
2023-05-18T08:11:29.789Z,30.00
2023-05-18T08:13:57.016Z,30.07
2023-05-18T08:16:24.184Z,30.09
2023-05-18T08:18:51.448Z,30.12
2023-05-18T08:21:18.727Z,30.16
2023-05-18T08:23:46.955Z,30.18
2023-05-18T08:26:14.438Z,30.22
2023-05-18T08:28:42.230Z,30.34
2023-05-18T08:31:09.384Z,30.43
2023-05-18T08:33:36.640Z,30.47
2023-05-18T08:36:04.173Z,30.53
2023-05-18T08:38:32.309Z,30.57
2023-05-18T08:41:06.314Z,30.58
2023-05-18T08:43:33.605Z,30.62
2023-05-18T08:46:26.935Z,30.68
2023-05-18T08:48:54.333Z,30.77
2023-05-18T08:51:22.019Z,30.83
2023-05-18T08:53:53.053Z,30.87
2023-05-18T08:56:23.897Z,30.95
2023-05-18T08:58:53.777Z,31.00
2023-05-18T09:01:21.277Z,31.03
2023-05-18T09:03:51.314Z,31.05
2023-05-18T09:06:18.672Z,31.12
2023-05-18T09:08:45.808Z,31.20
2023-05-18T09:11:13.282Z,31.27
2023-05-18T09:13:40.485Z,31.28
2023-05-18T09:16:08.368Z,31.34
2023-05-18T09:18:35.947Z,31.39
2023-05-18T09:21:03.083Z,31.42
2023-05-18T09:23:30.861Z,31.47
2023-05-18T09:25:57.982Z,31.54
2023-05-18T09:28:37.861Z,31.66
2023-05-18T09:31:07.954Z,31.52
2023-05-18T09:33:39.486Z,31.63
2023-05-18T09:36:07.904Z,31.75
2023-05-18T09:38:38.756Z,31.80
2023-05-18T09:41:10.517Z,31.81
2023-05-18T09:43:37.708Z,31.78
2023-05-18T09:46:08.456Z,31.82
2023-05-18T09:48:37.358Z,31.90
2023-05-18T09:51:06.908Z,31.95
2023-05-18T09:53:39.981Z,31.57
2023-05-18T09:56:11.522Z,31.87
2023-05-18T09:58:39.630Z,31.82
2023-05-18T10:01:07.334Z,31.89
2023-05-18T10:03:37.107Z,32.05
2023-05-18T10:06:05.777Z,32.17
2023-05-18T10:08:33.876Z,32.08
2023-05-18T10:11:01.185Z,32.07
2023-05-18T10:13:29.173Z,32.09
2023-05-18T10:15:57.124Z,32.15
2023-05-18T10:18:28.464Z,32.13
2023-05-18T10:20:59.188Z,32.24
2023-05-18T10:23:30.533Z,32.38
2023-05-18T10:25:58.281Z,32.46
2023-05-18T10:28:30.973Z,32.54
2023-05-18T10:30:59.177Z,32.64
2023-05-18T10:33:29.438Z,32.67
2023-05-18T10:35:57.462Z,32.70
2023-05-18T10:38:28.398Z,32.65
2023-05-18T10:40:56.745Z,32.61
2023-05-18T10:43:27.671Z,32.69
2023-05-18T10:45:59.276Z,32.78
2023-05-18T10:48:27.280Z,32.84
2023-05-18T10:53:33.714Z,32.22
2023-05-18T10:56:01.852Z,33.00
2023-05-18T10:58:30.018Z,33.03
2023-05-18T11:01:01.683Z,33.01
2023-05-18T11:03:29.067Z,33.01
2023-05-18T11:06:07.185Z,33.05
2023-05-18T11:08:34.829Z,33.11
2023-05-18T11:11:03.308Z,33.16
2023-05-18T11:13:31.602Z,33.24
2023-05-18T11:16:01.687Z,33.16
2023-05-18T11:18:36.277Z,33.19
2023-05-18T11:21:03.568Z,33.24
2023-05-18T11:23:33.716Z,33.25
2023-05-18T11:26:03.301Z,33.29
2023-05-18T11:28:31.200Z,33.32
2023-05-18T11:30:58.449Z,33.31
2023-05-18T11:33:30.895Z,33.33
2023-05-18T11:36:01.301Z,33.33
2023-05-18T11:38:52.968Z,33.32
2023-05-18T11:41:47.781Z,33.36
2023-05-18T11:44:16.605Z,33.43
2023-05-18T11:46:54.004Z,33.41
2023-05-18T11:49:23.808Z,33.38
2023-05-18T11:51:58.896Z,33.40
2023-05-18T11:54:26.714Z,33.45
2023-05-18T11:56:53.940Z,33.50
2023-05-18T11:59:36.578Z,33.52
2023-05-18T12:02:04.535Z,33.59
2023-05-18T12:04:33.772Z,33.63
2023-05-18T12:07:04.465Z,33.69
2023-05-18T12:09:32.301Z,33.70
2023-05-18T12:11:59.660Z,33.69
2023-05-18T12:14:26.914Z,33.71
2023-05-18T12:16:54.367Z,33.73
2023-05-18T12:19:23.719Z,33.74
2023-05-18T12:21:50.967Z,33.78
2023-05-18T12:24:18.110Z,33.78
2023-05-18T12:26:46.882Z,33.82
2023-05-18T12:29:20.374Z,33.82
2023-05-18T12:31:48.245Z,33.84
2023-05-18T12:34:15.575Z,33.87
2023-05-18T12:36:51.867Z,33.87
2023-05-18T12:39:19.277Z,33.89
2023-05-18T12:41:46.325Z,33.93
2023-05-18T12:44:14.406Z,33.99
2023-05-18T12:46:42.090Z,34.04
2023-05-18T12:49:09.293Z,34.08
2023-05-18T12:51:37.905Z,34.12
2023-05-18T12:54:08.183Z,34.06
2023-05-18T12:56:52.844Z,34.07
2023-05-18T12:59:20.473Z,34.11
2023-05-18T13:01:47.763Z,34.13
2023-05-18T13:04:15.202Z,34.14
2023-05-18T13:06:42.743Z,34.13
2023-05-18T13:09:13.091Z,34.19
2023-05-18T13:11:40.534Z,33.45
2023-05-18T13:14:08.455Z,33.19
2023-05-18T13:16:38.361Z,33.23
2023-05-18T13:19:10.041Z,33.04
2023-05-18T13:21:37.587Z,32.77
2023-05-18T13:24:05.341Z,32.62
2023-05-18T13:26:33.215Z,33.16
2023-05-18T13:29:00.582Z,34.36
2023-05-18T13:31:29.916Z,34.48
2023-05-18T13:33:57.572Z,34.45
2023-05-18T13:36:24.771Z,34.42
2023-05-18T13:38:52.549Z,34.54
2023-05-18T13:41:19.840Z,34.58
2023-05-18T13:43:46.987Z,34.66
2023-05-18T13:46:14.141Z,34.69
2023-05-18T13:48:41.482Z,34.63
2023-05-18T13:51:08.664Z,34.63
2023-05-18T13:53:36.562Z,34.56
2023-05-18T13:56:05.566Z,34.17
2023-05-18T13:58:32.674Z,33.88
2023-05-18T14:01:04.171Z,34.61
2023-05-18T14:03:34.314Z,34.75
2023-05-18T14:06:01.481Z,34.88
2023-05-18T14:08:28.562Z,34.94
2023-05-18T14:10:55.778Z,34.89
2023-05-18T14:13:22.952Z,34.89
2023-05-18T14:15:50.108Z,34.85
2023-05-18T14:18:17.281Z,34.85
2023-05-18T14:20:45.024Z,34.88
2023-05-18T14:23:12.129Z,34.93
2023-05-18T14:25:39.536Z,34.94
2023-05-18T14:28:06.968Z,34.93
2023-05-18T14:30:34.022Z,34.86
2023-05-18T14:33:01.642Z,34.81
2023-05-18T14:35:28.650Z,34.83
2023-05-18T14:37:55.759Z,34.84
2023-05-18T14:40:23.100Z,34.74
2023-05-18T14:42:51.584Z,34.77
2023-05-18T14:45:20.896Z,34.80
2023-05-18T14:47:48.335Z,34.84
2023-05-18T14:50:15.510Z,34.91
2023-05-18T14:52:42.922Z,34.98
2023-05-18T14:55:10.149Z,35.04
2023-05-18T14:57:37.483Z,34.89
2023-05-18T15:00:05.019Z,34.72
2023-05-18T15:02:32.407Z,34.69
2023-05-18T15:04:59.855Z,34.68
2023-05-18T15:07:26.969Z,34.78
2023-05-18T15:09:55.526Z,34.76
2023-05-18T15:12:23.630Z,34.78
2023-05-18T15:14:50.867Z,34.81
2023-05-18T15:17:18.164Z,34.83
2023-05-18T15:19:45.357Z,34.83
2023-05-18T15:22:12.666Z,34.80
2023-05-18T15:24:40.023Z,34.75
2023-05-18T15:27:07.332Z,34.75
2023-05-18T15:29:35.500Z,34.71
2023-05-18T15:32:02.758Z,34.67
2023-05-18T15:34:33.456Z,34.63
2023-05-18T15:37:01.421Z,34.66
2023-05-18T15:39:29.228Z,34.63
2023-05-18T15:41:56.587Z,34.64
2023-05-18T15:44:23.890Z,34.66
2023-05-18T15:46:51.050Z,34.64
2023-05-18T15:49:19.022Z,34.57
2023-05-18T15:51:46.040Z,34.63
2023-05-18T15:54:13.358Z,34.58
2023-05-18T15:56:41.087Z,34.51
2023-05-18T15:59:08.834Z,34.34
2023-05-18T16:01:36.371Z,34.25
2023-05-18T16:04:03.755Z,34.14
2023-05-18T16:06:30.934Z,34.09
2023-05-18T16:08:58.340Z,34.01
2023-05-18T16:11:26.137Z,33.88
2023-05-18T16:13:57.059Z,33.75
2023-05-18T16:16:25.633Z,33.64
2023-05-18T16:18:53.156Z,33.52
2023-05-18T16:21:20.369Z,33.37
2023-05-18T16:23:47.619Z,33.18
2023-05-18T16:26:14.801Z,33.02
2023-05-18T16:28:42.056Z,32.90
2023-05-18T16:31:11.373Z,32.78
2023-05-18T16:33:38.741Z,32.70
2023-05-18T16:36:06.437Z,32.60
2023-05-18T16:38:37.857Z,32.49
2023-05-18T16:41:05.431Z,32.38
2023-05-18T16:43:32.906Z,32.21
2023-05-18T16:46:00.301Z,32.12
2023-05-18T16:48:27.617Z,32.02
2023-05-18T16:50:54.737Z,31.89
2023-05-18T16:53:21.928Z,31.75
2023-05-18T16:55:49.742Z,31.62
2023-05-18T16:58:17.176Z,31.49
2023-05-18T17:00:44.451Z,31.37
2023-05-18T17:03:11.934Z,31.28
2023-05-18T17:05:39.072Z,31.18
2023-05-18T17:08:06.232Z,31.08
2023-05-18T17:10:35.696Z,30.98
2023-05-18T17:13:02.981Z,30.85
2023-05-18T17:15:31.580Z,30.75
2023-05-18T17:17:59.313Z,30.58
2023-05-18T17:20:26.735Z,30.43
2023-05-18T17:22:54.072Z,30.31
2023-05-18T17:25:21.323Z,30.15
2023-05-18T17:27:48.482Z,30.04
2023-05-18T17:30:15.766Z,29.92
2023-05-18T17:32:45.647Z,29.84
2023-05-18T17:35:14.264Z,29.76
2023-05-18T17:37:41.746Z,29.68
2023-05-18T17:40:09.915Z,29.59
2023-05-18T17:42:37.250Z,29.48
2023-05-18T17:45:04.753Z,29.39
2023-05-18T17:47:31.986Z,29.28
2023-05-18T17:49:59.091Z,29.09
2023-05-18T17:52:27.039Z,28.88
2023-05-18T17:54:54.422Z,28.73
2023-05-18T17:57:23.142Z,28.58
2023-05-18T17:59:50.413Z,28.39
2023-05-18T18:02:17.509Z,28.22
2023-05-18T18:04:44.678Z,28.08
2023-05-18T18:07:11.853Z,27.92
2023-05-18T18:09:39.259Z,27.82
2023-05-18T18:12:06.858Z,27.69
2023-05-18T18:14:34.225Z,27.57
2023-05-18T18:17:01.429Z,27.46
2023-05-18T18:19:30.420Z,27.35
2023-05-18T18:21:57.881Z,27.27
2023-05-18T18:24:25.215Z,27.17
2023-05-18T18:26:52.906Z,27.04
2023-05-18T18:29:20.190Z,26.93
2023-05-18T18:31:47.363Z,26.85
2023-05-18T18:34:15.059Z,26.71
2023-05-18T18:36:42.669Z,26.59
2023-05-18T18:39:09.976Z,26.49
2023-05-18T18:41:37.095Z,26.33
2023-05-18T18:44:04.355Z,26.21
2023-05-18T18:46:31.716Z,26.11
2023-05-18T18:48:59.116Z,26.00
2023-05-18T18:51:26.399Z,25.91
2023-05-18T18:53:53.579Z,25.87
2023-05-18T18:56:21.733Z,25.83
2023-05-18T18:58:50.984Z,25.72
2023-05-18T19:01:18.416Z,25.58
2023-05-18T19:03:45.977Z,25.47
2023-05-18T19:06:14.903Z,25.40
2023-05-18T19:08:42.580Z,25.29
2023-05-18T19:11:09.764Z,25.19
2023-05-18T19:13:36.972Z,25.09
2023-05-18T19:16:04.409Z,25.01
2023-05-18T19:18:31.558Z,24.97
2023-05-18T19:21:01.585Z,24.91
2023-05-18T19:23:28.799Z,24.85
2023-05-18T19:25:56.057Z,24.81
2023-05-18T19:28:23.261Z,24.77
2023-05-18T19:30:50.465Z,24.75
2023-05-18T19:33:17.583Z,24.74
2023-05-18T19:35:44.997Z,24.68
2023-05-18T19:38:12.211Z,24.60
2023-05-18T19:40:39.482Z,24.52
2023-05-18T19:43:06.633Z,24.52
2023-05-18T19:45:34.241Z,24.47
2023-05-18T19:48:01.890Z,24.42
2023-05-18T19:50:29.075Z,24.38
2023-05-18T19:52:56.188Z,24.32
2023-05-18T19:55:23.223Z,24.30
2023-05-18T19:57:50.614Z,24.23
2023-05-18T20:00:17.962Z,24.18
2023-05-18T20:02:45.092Z,24.12
2023-05-18T20:05:13.357Z,24.07
2023-05-18T20:07:41.176Z,24.05
2023-05-18T20:10:08.180Z,24.01
2023-05-18T20:12:35.552Z,23.99
2023-05-18T20:15:02.811Z,23.98
2023-05-18T20:17:29.935Z,23.96
2023-05-18T20:19:57.185Z,23.92
2023-05-18T20:22:24.443Z,23.90
2023-05-18T20:24:51.679Z,23.90
2023-05-18T20:27:19.032Z,23.87
2023-05-18T20:29:46.751Z,23.85
2023-05-18T20:32:13.826Z,23.80
2023-05-18T20:34:41.638Z,23.78
2023-05-18T20:37:10.912Z,23.79
2023-05-18T20:39:40.110Z,23.77
2023-05-18T20:42:08.059Z,23.74
2023-05-18T20:44:35.349Z,23.74
2023-05-18T20:47:02.829Z,23.72
2023-05-18T20:49:30.157Z,23.70
2023-05-18T20:51:57.270Z,23.72
2023-05-18T20:54:24.304Z,23.74
2023-05-18T20:56:51.603Z,23.76
2023-05-18T20:59:19.262Z,23.82
2023-05-18T21:01:46.520Z,23.87
2023-05-18T21:04:14.271Z,23.87
2023-05-18T21:06:44.161Z,23.88
2023-05-18T21:09:12.027Z,23.90
2023-05-18T21:11:39.135Z,23.94
2023-05-18T21:14:06.335Z,23.97
2023-05-18T21:16:33.933Z,24.01
2023-05-18T21:19:01.696Z,24.04
2023-05-18T21:21:28.848Z,24.12
2023-05-18T21:23:56.177Z,24.16
2023-05-18T21:26:23.487Z,24.19
2023-05-18T21:28:50.947Z,24.23
2023-05-18T21:31:18.209Z,24.28
2023-05-18T21:33:48.508Z,24.30
2023-05-18T21:36:15.784Z,24.32
2023-05-18T21:38:43.146Z,24.35
2023-05-18T21:41:10.494Z,24.39
2023-05-18T21:43:37.685Z,24.39
2023-05-18T21:46:05.912Z,24.36
2023-05-18T21:48:34.372Z,24.35
2023-05-18T21:51:01.930Z,24.38
2023-05-18T21:53:29.123Z,24.43
2023-05-18T21:55:56.407Z,24.42
2023-05-18T21:58:24.750Z,24.42
2023-05-18T22:00:51.882Z,24.48
2023-05-18T22:03:19.203Z,24.52
2023-05-18T22:05:46.506Z,24.54
2023-05-18T22:08:13.554Z,24.54
2023-05-18T22:10:40.652Z,24.52
2023-05-18T22:13:07.832Z,24.55
2023-05-18T22:15:37.394Z,24.57
2023-05-18T22:18:04.992Z,24.57
2023-05-18T22:20:32.799Z,24.59
2023-05-18T22:23:00.279Z,24.61
2023-05-18T22:25:27.447Z,24.61
2023-05-18T22:27:54.790Z,24.65
2023-05-18T22:30:24.025Z,24.68
2023-05-18T22:32:52.055Z,24.69
2023-05-18T22:35:19.236Z,24.70
2023-05-18T22:37:46.664Z,24.70
2023-05-18T22:40:13.913Z,24.67
2023-05-18T22:42:41.201Z,24.64
2023-05-18T22:45:09.705Z,24.58
2023-05-18T22:47:39.024Z,24.52
2023-05-18T22:50:07.248Z,24.50
2023-05-18T22:52:35.145Z,24.47
2023-05-18T22:55:02.441Z,24.45
2023-05-18T22:57:29.599Z,24.47
2023-05-18T22:59:56.724Z,24.44
2023-05-18T23:02:23.846Z,24.44
2023-05-18T23:04:50.986Z,24.39
2023-05-18T23:10:35.238Z,23.61
2023-05-18T23:13:02.669Z,24.45
2023-05-18T23:15:30.562Z,24.46
2023-05-18T23:17:57.473Z,24.43
2023-05-18T23:20:24.942Z,24.37
2023-05-18T23:22:51.887Z,24.35
2023-05-18T23:25:19.387Z,24.34
2023-05-18T23:27:46.477Z,24.35
2023-05-18T23:30:13.240Z,24.34
2023-05-18T23:32:41.892Z,24.35
2023-05-18T23:35:11.914Z,24.33
2023-05-18T23:37:41.511Z,24.31
2023-05-18T23:40:12.173Z,24.29
2023-05-18T23:42:39.329Z,24.27
2023-05-18T23:45:06.954Z,24.24
2023-05-18T23:47:34.334Z,24.21
2023-05-18T23:50:01.739Z,24.19
2023-05-18T23:52:29.625Z,24.18
2023-05-18T23:54:58.223Z,24.17
2023-05-18T23:57:25.471Z,24.14
2023-05-18T23:59:52.487Z,24.13
